createdAt,value
2018-03-27T00:00:09.479Z,56.00
2018-03-27T00:02:35.742Z,56.00
2018-03-27T00:05:02.049Z,55.70
2018-03-27T00:07:28.257Z,55.90
2018-03-27T00:09:54.582Z,55.50
2018-03-27T00:12:20.813Z,55.80
2018-03-27T00:14:47.056Z,55.80
2018-03-27T00:17:14.045Z,55.80
2018-03-27T00:19:40.293Z,55.80
2018-03-27T00:22:06.970Z,55.80
2018-03-27T00:24:40.923Z,56.50
2018-03-27T00:27:07.025Z,56.00
2018-03-27T00:29:45.540Z,56.30
2018-03-27T00:32:24.040Z,56.00
2018-03-27T00:35:02.433Z,56.20
2018-03-27T00:37:40.893Z,56.40
2018-03-27T00:40:19.193Z,57.20
2018-03-27T00:42:52.379Z,57.60
2018-03-27T00:45:18.623Z,57.20
2018-03-27T00:47:44.861Z,56.50
2018-03-27T00:50:11.107Z,56.70
2018-03-27T00:52:37.323Z,56.40
2018-03-27T00:55:03.558Z,56.40
2018-03-27T00:57:29.820Z,57.20
2018-03-27T00:59:56.025Z,56.40
2018-03-27T01:02:22.249Z,56.20
2018-03-27T01:04:48.517Z,55.90
2018-03-27T01:07:14.770Z,56.10
2018-03-27T01:09:41.008Z,56.70
2018-03-27T01:12:07.362Z,56.70
2018-03-27T01:14:33.612Z,56.00
2018-03-27T01:16:59.868Z,56.30
2018-03-27T01:19:26.191Z,55.90
2018-03-27T01:21:52.452Z,54.50
2018-03-27T01:24:18.646Z,54.50
2018-03-27T01:26:44.902Z,54.00
2018-03-27T01:29:11.140Z,55.80
2018-03-27T01:31:37.411Z,55.40
2018-03-27T01:34:03.667Z,55.10
2018-03-27T01:36:29.926Z,54.60
2018-03-27T01:38:56.904Z,54.00
2018-03-27T01:41:23.183Z,54.00
2018-03-27T01:43:49.449Z,54.50
2018-03-27T01:46:15.670Z,54.50
2018-03-27T01:48:41.892Z,54.70
2018-03-27T01:51:08.108Z,54.70
2018-03-27T01:53:34.380Z,54.00
2018-03-27T01:56:00.576Z,54.80
2018-03-27T01:58:27.534Z,54.80
2018-03-27T02:00:53.761Z,54.80
2018-03-27T02:03:20.000Z,55.40
2018-03-27T02:05:46.209Z,54.60
2018-03-27T02:08:12.447Z,54.00
2018-03-27T02:10:38.560Z,54.10
2018-03-27T02:13:10.813Z,55.00
2018-03-27T02:15:43.984Z,55.50
2018-03-27T02:18:16.340Z,55.10
2018-03-27T02:20:48.522Z,54.70
2018-03-27T02:23:17.794Z,55.30
2018-03-27T02:25:44.788Z,54.00
2018-03-27T02:28:11.001Z,54.00
2018-03-27T02:30:37.948Z,52.70
2018-03-27T02:33:04.171Z,52.60
2018-03-27T02:35:30.391Z,52.70
2018-03-27T02:37:56.597Z,50.70
2018-03-27T02:40:22.798Z,49.50
2018-03-27T02:42:49.026Z,49.10
2018-03-27T02:45:15.264Z,49.20
2018-03-27T02:47:41.494Z,49.20
2018-03-27T02:50:07.690Z,49.20
2018-03-27T02:52:34.617Z,49.30
2018-03-27T02:55:00.866Z,49.20
2018-03-27T02:57:27.092Z,49.20
2018-03-27T02:59:54.076Z,49.70
2018-03-27T03:02:20.372Z,49.60
2018-03-27T03:04:46.595Z,48.60
2018-03-27T03:07:12.870Z,50.40
2018-03-27T03:09:39.092Z,51.10
2018-03-27T03:12:05.357Z,51.00
2018-03-27T03:14:31.573Z,50.00
2018-03-27T03:16:57.794Z,50.90
2018-03-27T03:19:24.009Z,50.50
2018-03-27T03:21:50.224Z,49.80
2018-03-27T03:24:16.467Z,49.60
2018-03-27T03:26:42.725Z,49.70
2018-03-27T03:29:08.925Z,50.40
2018-03-27T03:31:35.184Z,51.10
2018-03-27T03:34:01.378Z,50.60
2018-03-27T03:36:27.686Z,50.10
2018-03-27T03:38:53.852Z,49.70
2018-03-27T03:41:20.815Z,50.50
2018-03-27T03:43:47.017Z,50.50
2018-03-27T03:46:13.256Z,50.80
2018-03-27T03:48:39.472Z,51.00
2018-03-27T03:51:06.613Z,51.00
2018-03-27T03:53:32.835Z,51.00
2018-03-27T03:55:59.115Z,51.10
2018-03-27T03:58:25.366Z,51.80
2018-03-27T04:00:51.600Z,51.90
2018-03-27T04:03:17.898Z,52.40
2018-03-27T04:05:44.818Z,52.80
2018-03-27T04:08:11.052Z,52.80
2018-03-27T04:10:37.282Z,52.80
2018-03-27T04:13:03.551Z,53.00
2018-03-27T04:15:29.726Z,52.40
2018-03-27T04:17:56.703Z,53.00
2018-03-27T04:20:22.945Z,53.00
2018-03-27T04:22:49.248Z,53.00
2018-03-27T04:25:16.193Z,53.00
2018-03-27T04:27:42.456Z,53.00
2018-03-27T04:30:09.410Z,53.10
2018-03-27T04:32:35.607Z,53.00
2018-03-27T04:35:01.861Z,53.20
2018-03-27T04:37:28.063Z,53.40
2018-03-27T04:39:54.293Z,54.00
2018-03-27T04:42:20.530Z,54.40
2018-03-27T04:44:47.505Z,54.00
2018-03-27T04:47:13.721Z,54.00
2018-03-27T04:49:40.682Z,54.00
2018-03-27T04:52:06.951Z,54.00
2018-03-27T04:54:33.309Z,54.00
2018-03-27T04:56:59.497Z,54.30
2018-03-27T04:59:25.852Z,54.50
2018-03-27T05:01:52.984Z,54.80
2018-03-27T05:04:19.168Z,54.80
2018-03-27T05:06:45.440Z,55.00
2018-03-27T05:09:11.654Z,55.50
2018-03-27T05:11:37.890Z,55.60
2018-03-27T05:14:04.079Z,56.90
2018-03-27T05:16:30.302Z,56.60
2018-03-27T05:18:56.643Z,56.40
2018-03-27T05:21:22.880Z,56.30
2018-03-27T05:23:49.135Z,56.70
2018-03-27T05:26:15.367Z,56.90
2018-03-27T05:28:41.637Z,56.70
2018-03-27T05:31:07.867Z,57.10
2018-03-27T05:33:35.133Z,56.80
2018-03-27T05:36:05.610Z,57.10
2018-03-27T05:38:32.160Z,57.30
2018-03-27T05:41:02.804Z,57.80
2018-03-27T05:43:29.766Z,57.80
2018-03-27T05:45:56.103Z,57.80
2018-03-27T05:48:22.368Z,57.80
2018-03-27T05:50:48.577Z,58.10
2018-03-27T05:53:14.796Z,57.50
2018-03-27T05:55:41.032Z,56.70
2018-03-27T05:58:07.244Z,57.40
2018-03-27T06:00:33.597Z,58.10
2018-03-27T06:02:59.833Z,57.10
2018-03-27T06:05:26.019Z,56.10
2018-03-27T06:07:52.287Z,55.40
2018-03-27T06:10:19.259Z,55.00
2018-03-27T06:12:45.731Z,55.00
2018-03-27T06:15:11.966Z,55.30
2018-03-27T06:17:38.211Z,56.80
2018-03-27T06:20:04.495Z,57.80
2018-03-27T06:22:31.464Z,59.00
2018-03-27T06:24:57.672Z,59.00
2018-03-27T06:27:24.159Z,60.00
2018-03-27T06:29:51.149Z,58.30
2018-03-27T06:32:17.423Z,58.30
2018-03-27T06:34:43.663Z,58.40
2018-03-27T06:37:10.300Z,58.70
2018-03-27T06:39:36.519Z,59.00
2018-03-27T06:42:04.866Z,59.20
2018-03-27T06:44:31.152Z,59.20
2018-03-27T06:46:57.387Z,58.50
2018-03-27T06:49:23.667Z,58.50
2018-03-27T06:51:49.876Z,58.50
2018-03-27T06:54:16.137Z,58.60
2018-03-27T06:56:42.425Z,58.60
2018-03-27T06:59:08.785Z,58.70
2018-03-27T07:01:35.049Z,58.70
2018-03-27T07:04:01.333Z,58.80
2018-03-27T07:06:27.667Z,58.90
2018-03-27T07:08:53.860Z,59.00
2018-03-27T07:11:20.197Z,58.50
2018-03-27T07:13:46.428Z,57.50
2018-03-27T07:16:12.691Z,57.20
2018-03-27T07:18:38.911Z,57.20
2018-03-27T07:21:05.140Z,57.20
2018-03-27T07:23:31.344Z,56.60
2018-03-27T07:25:57.691Z,55.90
2018-03-27T07:28:23.920Z,55.30
2018-03-27T07:30:50.895Z,55.00
2018-03-27T07:33:17.101Z,55.00
2018-03-27T07:35:43.334Z,54.70
2018-03-27T07:38:09.534Z,53.80
2018-03-27T07:40:35.729Z,53.00
2018-03-27T07:43:02.672Z,52.20
2018-03-27T07:45:29.190Z,52.10
2018-03-27T07:47:55.497Z,51.30
2018-03-27T07:50:21.689Z,50.70
2018-03-27T07:52:47.981Z,49.80
2018-03-27T07:55:14.272Z,50.00
2018-03-27T07:57:40.652Z,49.50
2018-03-27T08:00:06.927Z,48.90
2018-03-27T08:02:33.191Z,47.70
2018-03-27T08:04:59.445Z,48.40
2018-03-27T08:07:25.685Z,47.80
2018-03-27T08:09:51.971Z,48.00
2018-03-27T08:12:18.261Z,46.80
2018-03-27T08:14:44.458Z,47.40
2018-03-27T08:17:10.708Z,46.50
2018-03-27T08:19:36.971Z,47.80
2018-03-27T08:22:03.238Z,46.60
2018-03-27T08:24:29.920Z,46.80
2018-03-27T08:26:56.104Z,46.00
2018-03-27T08:29:22.447Z,45.70
2018-03-27T08:31:48.649Z,44.70
2018-03-27T08:34:15.671Z,44.00
2018-03-27T08:36:42.078Z,43.90
2018-03-27T08:39:08.339Z,43.10
2018-03-27T08:41:34.647Z,43.70
2018-03-27T08:44:00.944Z,42.60
2018-03-27T08:46:27.340Z,42.30
2018-03-27T08:48:53.790Z,42.30
2018-03-27T08:51:20.061Z,42.50
2018-03-27T08:53:46.373Z,41.80
2018-03-27T08:56:15.391Z,41.10
2018-03-27T08:58:41.742Z,41.30
2018-03-27T09:01:12.764Z,41.40
2018-03-27T09:03:39.424Z,39.60
2018-03-27T09:06:05.759Z,40.70
2018-03-27T09:08:31.998Z,40.60
2018-03-27T09:10:58.971Z,40.10
2018-03-27T09:13:25.402Z,40.10
2018-03-27T09:15:52.393Z,40.70
2018-03-27T09:18:18.750Z,40.70
2018-03-27T09:20:45.197Z,40.90
2018-03-27T09:23:11.377Z,39.90
2018-03-27T09:25:37.589Z,39.10
2018-03-27T09:28:03.874Z,38.30
2018-03-27T09:30:30.137Z,37.80
2018-03-27T09:32:56.397Z,38.50
2018-03-27T09:35:22.641Z,38.00
2018-03-27T09:37:48.877Z,38.00
2018-03-27T09:40:15.217Z,37.80
2018-03-27T09:42:41.398Z,37.20
2018-03-27T09:45:08.434Z,36.40
2018-03-27T09:47:34.741Z,36.40
2018-03-27T09:50:00.965Z,36.50
2018-03-27T09:52:27.959Z,35.20
2018-03-27T09:54:54.320Z,35.10
2018-03-27T09:57:20.975Z,34.10
2018-03-27T09:59:47.831Z,32.00
2018-03-27T10:02:14.102Z,30.20
2018-03-27T10:04:40.385Z,30.00
2018-03-27T10:07:06.628Z,30.40
2018-03-27T10:09:33.040Z,30.00
2018-03-27T10:11:59.274Z,29.70
2018-03-27T10:14:25.805Z,28.70
2018-03-27T10:16:52.038Z,29.20
2018-03-27T10:19:18.405Z,29.20
2018-03-27T10:21:44.650Z,29.30
2018-03-27T10:24:12.554Z,29.60
2018-03-27T10:26:38.844Z,29.60
2018-03-27T10:29:05.157Z,29.20
2018-03-27T10:31:31.464Z,29.40
2018-03-27T10:33:57.677Z,29.80
2018-03-27T10:36:23.904Z,29.40
2018-03-27T10:38:50.147Z,29.90
2018-03-27T10:41:16.388Z,29.90
2018-03-27T10:43:42.618Z,29.70
2018-03-27T10:46:09.215Z,29.60
2018-03-27T10:48:35.455Z,30.10
2018-03-27T10:51:01.762Z,30.40
2018-03-27T10:53:28.029Z,31.40
2018-03-27T10:55:54.226Z,32.20
2018-03-27T10:58:20.533Z,33.00
2018-03-27T11:00:46.826Z,33.10
2018-03-27T11:03:13.095Z,33.80
2018-03-27T11:05:39.394Z,33.70
2018-03-27T11:08:05.652Z,33.70
2018-03-27T11:10:31.951Z,34.10
2018-03-27T11:12:58.985Z,34.00
2018-03-27T11:15:25.252Z,34.00
2018-03-27T11:17:52.263Z,34.20
2018-03-27T11:20:18.528Z,34.20
2018-03-27T11:22:44.732Z,34.10
2018-03-27T11:25:10.985Z,34.00
2018-03-27T11:27:37.238Z,34.20
2018-03-27T11:30:03.530Z,34.20
2018-03-27T11:32:29.743Z,34.40
2018-03-27T11:34:56.031Z,34.40
2018-03-27T11:37:22.457Z,34.20
2018-03-27T11:39:49.481Z,34.10
2018-03-27T11:42:15.799Z,34.00
2018-03-27T11:44:42.366Z,34.20
2018-03-27T11:47:08.643Z,34.40
2018-03-27T11:49:34.868Z,34.40
2018-03-27T11:52:01.176Z,34.20
2018-03-27T11:54:27.420Z,33.60
2018-03-27T11:56:53.668Z,32.40
2018-03-27T11:59:19.892Z,32.40
2018-03-27T12:01:46.949Z,32.00
2018-03-27T12:04:13.298Z,32.30
2018-03-27T12:06:39.570Z,33.00
2018-03-27T12:09:05.781Z,31.70
2018-03-27T12:11:32.161Z,31.70
2018-03-27T12:13:58.403Z,32.10
2018-03-27T12:16:25.401Z,33.50
2018-03-27T12:18:51.666Z,33.40
2018-03-27T12:21:17.925Z,34.10
2018-03-27T12:23:44.138Z,34.10
2018-03-27T12:26:10.400Z,34.10
2018-03-27T12:28:36.700Z,34.00
2018-03-27T12:31:02.909Z,34.10
2018-03-27T12:33:29.139Z,34.20
2018-03-27T12:35:55.353Z,33.70
2018-03-27T12:38:21.584Z,33.20
2018-03-27T12:40:47.786Z,32.70
2018-03-27T12:43:14.017Z,32.30
2018-03-27T12:45:40.214Z,32.70
2018-03-27T12:48:06.558Z,32.40
2018-03-27T12:50:33.063Z,31.50
2018-03-27T12:52:59.320Z,32.10
2018-03-27T12:55:25.576Z,31.80
2018-03-27T12:57:52.955Z,31.00
2018-03-27T13:00:19.237Z,30.70
2018-03-27T13:02:45.591Z,30.00
2018-03-27T13:05:11.817Z,30.00
2018-03-27T13:07:38.087Z,29.80
2018-03-27T13:10:05.040Z,28.80
2018-03-27T13:12:31.214Z,28.80
2018-03-27T13:14:57.442Z,28.50
2018-03-27T13:17:24.376Z,28.50
2018-03-27T13:19:50.704Z,28.50
2018-03-27T13:22:17.343Z,27.70
2018-03-27T13:24:43.595Z,28.00
2018-03-27T13:27:09.958Z,27.40
2018-03-27T13:29:36.169Z,27.60
2018-03-27T13:32:02.545Z,27.70
2018-03-27T13:34:29.531Z,27.70
2018-03-27T13:36:56.004Z,27.60
2018-03-27T13:39:22.298Z,28.10
2018-03-27T13:41:49.244Z,27.00
2018-03-27T13:44:15.485Z,27.00
2018-03-27T13:46:41.709Z,27.30
2018-03-27T13:49:07.963Z,26.70
2018-03-27T13:51:34.253Z,26.60
2018-03-27T13:54:00.465Z,25.90
2018-03-27T13:56:27.503Z,26.20
2018-03-27T13:58:53.712Z,26.20
2018-03-27T14:01:19.939Z,26.20
2018-03-27T14:03:46.129Z,26.90
2018-03-27T14:06:12.423Z,26.60
2018-03-27T14:08:38.671Z,26.60
2018-03-27T14:11:05.072Z,26.90
2018-03-27T14:13:32.014Z,27.20
2018-03-27T14:15:58.420Z,27.20
2018-03-27T14:18:24.655Z,27.20
2018-03-27T14:20:50.993Z,28.00
2018-03-27T14:23:17.214Z,27.60
2018-03-27T14:25:44.682Z,28.00
2018-03-27T14:28:10.942Z,28.40
2018-03-27T14:30:37.259Z,28.60
2018-03-27T14:33:03.843Z,29.30
2018-03-27T14:35:30.173Z,29.00
2018-03-27T14:37:56.399Z,29.50
2018-03-27T14:40:23.538Z,29.60
2018-03-27T14:42:49.847Z,29.70
2018-03-27T14:45:16.085Z,30.80
2018-03-27T14:47:42.614Z,30.80
2018-03-27T14:50:08.797Z,31.60
2018-03-27T14:52:35.172Z,32.50
2018-03-27T14:55:01.437Z,32.10
2018-03-27T14:57:27.708Z,33.00
2018-03-27T14:59:54.021Z,33.80
2018-03-27T15:02:20.459Z,33.00
2018-03-27T15:04:46.743Z,33.30
2018-03-27T15:07:12.978Z,33.00
2018-03-27T15:09:39.339Z,33.40
2018-03-27T15:12:05.682Z,33.50
2018-03-27T15:14:31.921Z,33.50
2018-03-27T15:16:58.202Z,34.40
2018-03-27T15:19:25.233Z,34.30
2018-03-27T15:21:51.504Z,34.30
2018-03-27T15:24:18.492Z,34.30
2018-03-27T15:26:44.709Z,34.30
2018-03-27T15:29:11.691Z,34.90
2018-03-27T15:31:37.922Z,34.90
2018-03-27T15:34:04.254Z,34.70
2018-03-27T15:36:31.190Z,34.70
2018-03-27T15:38:57.740Z,34.70
2018-03-27T15:41:24.327Z,35.20
2018-03-27T15:43:50.536Z,35.00
2018-03-27T15:46:16.782Z,35.50
2018-03-27T15:48:43.760Z,35.70
2018-03-27T15:51:10.020Z,35.70
2018-03-27T15:53:36.273Z,36.30
2018-03-27T15:56:02.498Z,36.40
2018-03-27T15:58:29.911Z,37.30
2018-03-27T16:00:56.773Z,37.40
2018-03-27T16:03:23.052Z,39.50
2018-03-27T16:05:49.472Z,39.50
2018-03-27T16:08:16.461Z,44.90
2018-03-27T16:10:42.724Z,45.00
2018-03-27T16:13:09.046Z,50.70
2018-03-27T16:15:35.342Z,51.60
2018-03-27T16:18:01.624Z,53.60
2018-03-27T16:20:27.890Z,53.50
2018-03-27T16:22:54.194Z,53.50
2018-03-27T16:25:20.454Z,54.40
2018-03-27T16:27:46.756Z,53.90
2018-03-27T16:30:12.990Z,54.90
2018-03-27T16:32:39.311Z,56.20
2018-03-27T16:35:05.602Z,57.20
2018-03-27T16:37:31.884Z,56.40
2018-03-27T16:39:58.178Z,57.10
2018-03-27T16:42:24.559Z,58.10
2018-03-27T16:44:50.842Z,57.20
2018-03-27T16:47:17.111Z,57.50
2018-03-27T16:49:47.071Z,57.00
2018-03-27T16:52:14.281Z,57.60
2018-03-27T16:54:40.546Z,56.40
2018-03-27T16:57:06.795Z,57.60
2018-03-27T16:59:33.062Z,55.90
2018-03-27T17:01:59.362Z,56.30
2018-03-27T17:04:26.541Z,56.60
2018-03-27T17:06:53.598Z,57.00
2018-03-27T17:09:22.918Z,57.00
2018-03-27T17:11:49.329Z,58.00
2018-03-27T17:14:15.605Z,59.00
2018-03-27T17:16:41.929Z,58.90
2018-03-27T17:19:08.287Z,58.50
2018-03-27T17:21:34.561Z,58.20
2018-03-27T17:24:00.798Z,59.30
2018-03-27T17:26:27.188Z,58.90
2018-03-27T17:28:53.470Z,58.40
2018-03-27T17:31:19.712Z,58.00
2018-03-27T17:33:46.083Z,58.30
2018-03-27T17:36:13.366Z,58.90
2018-03-27T17:38:39.572Z,59.20
2018-03-27T17:41:05.934Z,59.50
2018-03-27T17:43:34.849Z,60.60
2018-03-27T17:46:01.112Z,61.40
2018-03-27T17:48:27.376Z,60.00
2018-03-27T17:50:53.661Z,62.10
2018-03-27T17:53:19.983Z,61.00
2018-03-27T17:55:47.028Z,60.90
2018-03-27T17:58:14.039Z,62.00
2018-03-27T18:00:40.448Z,62.00
2018-03-27T18:03:06.728Z,62.00
2018-03-27T18:05:33.030Z,61.70
2018-03-27T18:08:00.702Z,62.00
2018-03-27T18:10:26.998Z,63.00
2018-03-27T18:12:53.216Z,62.00
2018-03-27T18:15:20.309Z,63.50
2018-03-27T18:17:46.557Z,63.50
2018-03-27T18:20:12.767Z,64.40
2018-03-27T18:22:38.982Z,63.70
2018-03-27T18:25:05.860Z,63.10
2018-03-27T18:27:32.152Z,63.40
2018-03-27T18:29:59.284Z,65.10
2018-03-27T18:32:25.587Z,64.30
2018-03-27T18:34:51.886Z,64.70
2018-03-27T18:37:18.262Z,64.50
2018-03-27T18:39:44.449Z,65.40
2018-03-27T18:42:10.844Z,65.70
2018-03-27T18:44:37.805Z,65.10
2018-03-27T18:47:04.061Z,65.10
2018-03-27T18:49:30.375Z,66.20
2018-03-27T18:52:02.038Z,66.90
2018-03-27T18:54:28.309Z,67.30
2018-03-27T18:56:55.362Z,67.20
2018-03-27T18:59:21.617Z,67.20
2018-03-27T19:01:47.885Z,68.40
2018-03-27T19:04:14.373Z,66.90
2018-03-27T19:06:41.422Z,67.10
2018-03-27T19:09:07.693Z,67.10
2018-03-27T19:11:34.785Z,67.00
2018-03-27T19:14:01.179Z,66.90
2018-03-27T19:16:28.450Z,67.80
2018-03-27T19:18:56.484Z,67.90
2018-03-27T19:21:22.813Z,67.80
2018-03-27T19:23:49.363Z,67.00
2018-03-27T19:26:15.834Z,68.30
2018-03-27T19:28:42.265Z,68.30
2018-03-27T19:31:09.575Z,67.60
2018-03-27T19:33:35.850Z,66.60
2018-03-27T19:36:04.254Z,69.20
2018-03-27T19:38:30.613Z,69.40
2018-03-27T19:40:56.819Z,69.70
2018-03-27T19:43:23.266Z,70.30
2018-03-27T19:45:50.295Z,70.30
2018-03-27T19:48:16.567Z,70.30
2018-03-27T19:50:42.941Z,70.30
2018-03-27T19:53:09.153Z,71.00
2018-03-27T19:55:36.176Z,71.40
2018-03-27T19:58:02.462Z,71.30
2018-03-27T20:00:28.873Z,71.40
2018-03-27T20:02:55.180Z,71.90
2018-03-27T20:05:21.534Z,71.90
2018-03-27T20:07:47.791Z,71.80
2018-03-27T20:10:14.102Z,72.40
2018-03-27T20:12:40.380Z,71.80
2018-03-27T20:15:06.658Z,71.70
2018-03-27T20:17:32.941Z,71.30
2018-03-27T20:19:59.221Z,72.10
2018-03-27T20:22:25.608Z,72.70
2018-03-27T20:24:51.831Z,73.00
2018-03-27T20:27:18.090Z,73.20
2018-03-27T20:29:47.708Z,73.40
2018-03-27T20:32:13.978Z,72.70
2018-03-27T20:34:40.269Z,73.30
2018-03-27T20:37:07.378Z,73.60
2018-03-27T20:39:33.630Z,73.60
2018-03-27T20:41:59.970Z,74.20
2018-03-27T20:44:26.314Z,74.20
2018-03-27T20:46:52.837Z,74.40
2018-03-27T20:49:19.136Z,74.80
2018-03-27T20:51:45.698Z,75.10
2018-03-27T20:54:11.973Z,75.40
2018-03-27T20:56:38.258Z,75.20
2018-03-27T20:59:04.453Z,75.60
2018-03-27T21:01:30.673Z,75.50
2018-03-27T21:03:57.284Z,75.80
2018-03-27T21:06:23.567Z,76.10
2018-03-27T21:08:49.788Z,76.20
2018-03-27T21:11:16.059Z,75.90
2018-03-27T21:13:42.290Z,76.40
2018-03-27T21:16:09.277Z,77.00
2018-03-27T21:18:35.517Z,76.80
2018-03-27T21:21:02.616Z,76.90
2018-03-27T21:23:29.611Z,76.90
2018-03-27T21:25:55.809Z,76.90
2018-03-27T21:28:22.099Z,76.80
2018-03-27T21:30:48.344Z,77.40
2018-03-27T21:33:15.400Z,77.40
2018-03-27T21:35:41.681Z,77.40
2018-03-27T21:38:07.964Z,77.20
2018-03-27T21:40:34.961Z,77.40
2018-03-27T21:43:01.296Z,77.30
2018-03-27T21:45:28.562Z,77.20
2018-03-27T21:47:54.794Z,77.70
2018-03-27T21:50:21.150Z,75.90
2018-03-27T21:52:47.391Z,77.80
2018-03-27T21:55:13.711Z,78.60
2018-03-27T21:57:39.958Z,78.10
2018-03-27T22:00:07.850Z,77.00
2018-03-27T22:02:34.113Z,77.00
2018-03-27T22:05:00.401Z,77.30
2018-03-27T22:07:27.416Z,77.90
2018-03-27T22:09:53.643Z,77.90
2018-03-27T22:12:19.933Z,78.30
2018-03-27T22:14:46.199Z,78.60
2018-03-27T22:17:14.238Z,78.50
2018-03-27T22:19:40.784Z,78.50
2018-03-27T22:22:07.105Z,78.70
2018-03-27T22:24:33.467Z,78.40
2018-03-27T22:26:59.817Z,78.20
2018-03-27T22:29:26.140Z,78.10
2018-03-27T22:31:52.382Z,78.40
2018-03-27T22:34:18.603Z,78.70
2018-03-27T22:36:44.868Z,78.40
2018-03-27T22:39:11.068Z,79.10
2018-03-27T22:41:37.448Z,79.30
2018-03-27T22:44:03.716Z,79.30
2018-03-27T22:46:29.961Z,79.30
2018-03-27T22:48:56.179Z,78.80
2018-03-27T22:51:22.424Z,79.20
2018-03-27T22:53:48.633Z,78.80
2018-03-27T22:56:14.877Z,79.40
2018-03-27T22:58:41.107Z,79.00
2018-03-27T23:01:07.338Z,79.70
2018-03-27T23:03:33.537Z,79.70
2018-03-27T23:06:00.438Z,79.80
2018-03-27T23:08:26.821Z,80.00
2018-03-27T23:10:53.008Z,80.20
2018-03-27T23:13:19.203Z,80.40
2018-03-27T23:15:47.503Z,80.40
2018-03-27T23:18:13.766Z,80.30
2018-03-27T23:20:40.122Z,80.30
2018-03-27T23:23:07.087Z,80.80
2018-03-27T23:25:33.441Z,80.70
2018-03-27T23:27:59.740Z,81.30
2018-03-27T23:30:26.016Z,81.30
2018-03-27T23:32:52.269Z,81.30
2018-03-27T23:35:19.209Z,81.30
2018-03-27T23:37:45.469Z,81.30
2018-03-27T23:40:11.764Z,81.30
2018-03-27T23:42:38.005Z,81.30
2018-03-27T23:45:04.249Z,81.40
2018-03-27T23:47:30.521Z,81.30
2018-03-27T23:49:56.820Z,81.30
2018-03-27T23:52:23.083Z,81.30
2018-03-27T23:54:49.447Z,81.60
2018-03-27T23:57:16.568Z,81.30
2018-03-27T23:59:43.135Z,81.20
